createdAt,value
2018-05-10T00:01:17.806Z,88.20
2018-05-10T00:03:44.349Z,89.90
2018-05-10T00:06:11.430Z,89.40
2018-05-10T00:08:37.785Z,89.40
2018-05-10T00:11:04.268Z,90.00
2018-05-10T00:13:31.365Z,90.30
2018-05-10T00:15:57.653Z,90.30
2018-05-10T00:18:24.000Z,91.70
2018-05-10T00:20:50.536Z,92.60
2018-05-10T00:23:17.171Z,92.00
2018-05-10T00:25:43.576Z,91.60
2018-05-10T00:28:10.004Z,91.70
2018-05-10T00:30:36.565Z,91.40
2018-05-10T00:33:06.789Z,91.40
2018-05-10T00:35:33.977Z,91.20
2018-05-10T00:38:00.334Z,91.20
2018-05-10T00:40:26.729Z,91.40
2018-05-10T00:42:53.436Z,91.30
2018-05-10T00:45:19.772Z,91.20
2018-05-10T00:47:46.851Z,91.40
2018-05-10T00:50:13.250Z,91.30
2018-05-10T00:52:39.614Z,90.70
2018-05-10T00:55:06.765Z,90.10
2018-05-10T00:57:33.084Z,90.00
2018-05-10T00:59:59.464Z,90.20
2018-05-10T01:02:25.859Z,90.40
2018-05-10T01:04:52.979Z,90.80
2018-05-10T01:07:19.314Z,90.80
2018-05-10T01:09:45.785Z,90.80
2018-05-10T01:12:12.188Z,91.00
2018-05-10T01:14:38.700Z,91.40
2018-05-10T01:17:05.782Z,91.60
2018-05-10T01:19:36.709Z,92.10
2018-05-10T01:22:03.307Z,91.70
2018-05-10T01:24:29.713Z,92.00
2018-05-10T01:26:56.881Z,92.30
2018-05-10T01:29:23.251Z,92.40
2018-05-10T01:31:49.863Z,92.60
2018-05-10T01:34:16.709Z,92.80
2018-05-10T01:36:43.895Z,93.50
2018-05-10T01:39:10.585Z,93.50
2018-05-10T01:41:37.228Z,93.30
2018-05-10T01:44:03.627Z,93.00
2018-05-10T01:46:30.050Z,93.00
2018-05-10T01:48:57.442Z,94.20
2018-05-10T01:51:24.106Z,94.20
2018-05-10T01:53:50.437Z,94.00
2018-05-10T01:56:17.689Z,94.70
2018-05-10T01:58:44.427Z,94.60
2018-05-10T02:01:11.013Z,94.60
2018-05-10T02:03:37.451Z,94.60
2018-05-10T02:06:04.037Z,94.50
2018-05-10T02:08:30.449Z,94.50
2018-05-10T02:10:57.112Z,94.50
2018-05-10T02:13:23.516Z,94.40
2018-05-10T02:15:49.902Z,94.40
2018-05-10T02:18:16.236Z,94.60
2018-05-10T02:20:42.649Z,94.70
2018-05-10T02:23:08.985Z,94.70
2018-05-10T02:25:35.825Z,95.00
2018-05-10T02:28:02.176Z,94.90
2018-05-10T02:30:29.267Z,95.20
2018-05-10T02:32:55.602Z,95.10
2018-05-10T02:35:22.009Z,95.30
2018-05-10T02:37:48.930Z,95.50
2018-05-10T02:40:15.297Z,95.90
2018-05-10T02:42:41.603Z,96.10
2018-05-10T02:45:07.986Z,96.10
2018-05-10T02:47:35.035Z,95.40
2018-05-10T02:50:01.503Z,95.40
2018-05-10T02:52:27.829Z,95.70
2018-05-10T02:54:54.185Z,95.90
2018-05-10T02:57:20.523Z,96.20
2018-05-10T02:59:47.671Z,96.20
2018-05-10T03:02:14.040Z,96.20
2018-05-10T03:04:40.384Z,96.50
2018-05-10T03:07:06.909Z,96.10
2018-05-10T03:09:33.274Z,96.30
2018-05-10T03:11:59.683Z,96.40
2018-05-10T03:14:26.088Z,96.60
2018-05-10T03:16:52.430Z,97.00
2018-05-10T03:19:18.768Z,97.00
2018-05-10T03:21:45.147Z,96.30
2018-05-10T03:24:11.465Z,96.20
2018-05-10T03:26:37.822Z,96.30
2018-05-10T03:29:04.965Z,96.40
2018-05-10T03:31:31.377Z,96.40
2018-05-10T03:33:57.751Z,96.30
2018-05-10T03:36:24.884Z,96.80
2018-05-10T03:38:51.221Z,96.80
2018-05-10T03:41:17.880Z,96.60
2018-05-10T03:43:44.208Z,96.70
2018-05-10T03:46:11.321Z,96.80
2018-05-10T03:48:37.693Z,96.80
2018-05-10T03:51:04.785Z,97.00
2018-05-10T03:53:31.865Z,96.80
2018-05-10T03:55:58.209Z,97.00
2018-05-10T03:58:24.580Z,97.30
2018-05-10T04:00:51.637Z,98.60
2018-05-10T04:03:31.345Z,98.60
2018-05-10T04:06:10.085Z,99.40
2018-05-10T04:08:48.756Z,99.80
2018-05-10T04:11:21.238Z,99.90
2018-05-10T04:13:48.524Z,99.70
2018-05-10T04:16:14.842Z,99.40
2018-05-10T04:18:41.156Z,99.10
2018-05-10T04:21:07.536Z,99.40
2018-05-10T04:23:34.641Z,99.30
2018-05-10T04:26:01.087Z,99.30
2018-05-10T04:28:27.418Z,99.10
2018-05-10T04:30:53.785Z,99.20
2018-05-10T04:33:20.188Z,99.20
2018-05-10T04:35:46.544Z,99.10
2018-05-10T04:38:13.593Z,98.70
2018-05-10T04:40:40.716Z,97.60
2018-05-10T04:43:07.861Z,97.60
2018-05-10T04:45:34.585Z,97.30
2018-05-10T04:48:01.134Z,97.60
2018-05-10T04:50:27.457Z,97.40
2018-05-10T04:52:54.112Z,98.60
2018-05-10T04:55:20.506Z,99.20
2018-05-10T04:57:47.833Z,99.20
2018-05-10T05:00:14.196Z,99.20
2018-05-10T05:02:40.665Z,99.10
2018-05-10T05:05:07.024Z,98.60
2018-05-10T05:07:33.364Z,98.50
2018-05-10T05:10:00.476Z,98.10
2018-05-10T05:12:26.796Z,98.10
2018-05-10T05:14:53.161Z,98.00
2018-05-10T05:17:19.514Z,98.00
2018-05-10T05:19:45.952Z,98.00
2018-05-10T05:22:13.094Z,97.90
2018-05-10T05:24:39.518Z,97.80
2018-05-10T05:27:06.668Z,97.70
2018-05-10T05:29:33.062Z,97.40
2018-05-10T05:31:59.536Z,97.00
2018-05-10T05:34:26.048Z,96.90
2018-05-10T05:36:52.474Z,96.80
2018-05-10T05:39:18.853Z,96.50
2018-05-10T05:41:45.239Z,96.10
2018-05-10T05:44:11.605Z,96.00
2018-05-10T05:46:38.726Z,95.40
2018-05-10T05:49:05.064Z,95.40
2018-05-10T05:51:32.001Z,95.00
2018-05-10T05:53:58.517Z,94.70
2018-05-10T05:56:25.619Z,94.20
2018-05-10T05:58:52.021Z,94.20
2018-05-10T06:01:18.502Z,94.00
2018-05-10T06:03:44.833Z,93.40
2018-05-10T06:06:12.022Z,92.70
2018-05-10T06:08:38.458Z,92.70
2018-05-10T06:11:04.999Z,91.80
2018-05-10T06:13:31.685Z,91.70
2018-05-10T06:15:58.250Z,91.50
2018-05-10T06:18:24.573Z,91.30
2018-05-10T06:20:51.722Z,90.90
2018-05-10T06:23:19.315Z,91.10
2018-05-10T06:25:45.694Z,91.10
2018-05-10T06:28:12.256Z,91.20
2018-05-10T06:30:38.603Z,90.30
2018-05-10T06:33:05.002Z,89.50
2018-05-10T06:35:31.478Z,87.20
2018-05-10T06:37:58.898Z,85.30
2018-05-10T06:40:29.246Z,85.20
2018-05-10T06:42:56.522Z,84.30
2018-05-10T06:45:23.322Z,84.20
2018-05-10T06:47:49.840Z,84.10
2018-05-10T06:53:12.998Z,82.30
2018-05-10T06:55:40.583Z,79.60
2018-05-10T06:58:09.068Z,79.40
2018-05-10T07:00:35.423Z,77.40
2018-05-10T07:03:01.782Z,75.10
2018-05-10T07:05:29.276Z,74.70
2018-05-10T07:07:55.971Z,74.70
2018-05-10T07:10:30.375Z,72.30
2018-05-10T07:12:57.976Z,70.40
2018-05-10T07:15:25.302Z,67.10
2018-05-10T07:17:52.870Z,69.20
2018-05-10T07:20:19.445Z,69.20
2018-05-10T07:22:46.166Z,68.90
2018-05-10T07:25:13.259Z,62.70
2018-05-10T07:27:39.828Z,61.50
2018-05-10T07:30:07.179Z,60.70
2018-05-10T07:32:37.607Z,60.60
2018-05-10T07:35:04.915Z,57.20
2018-05-10T07:37:31.530Z,57.20
2018-05-10T07:39:58.002Z,55.10
2018-05-10T07:42:24.365Z,56.30
2018-05-10T07:44:51.218Z,57.20
2018-05-10T07:47:17.826Z,57.30
2018-05-10T07:49:44.210Z,52.10
2018-05-10T07:52:10.551Z,51.50
2018-05-10T07:54:37.114Z,51.10
2018-05-10T07:57:03.570Z,50.40
2018-05-10T07:59:30.816Z,47.00
2018-05-10T08:01:57.181Z,46.90
2018-05-10T08:04:23.781Z,47.20
2018-05-10T08:06:50.202Z,47.50
2018-05-10T08:09:16.609Z,48.80
2018-05-10T08:11:43.989Z,45.60
2018-05-10T08:14:10.454Z,45.90
2018-05-10T08:16:36.888Z,45.10
2018-05-10T08:19:03.308Z,43.90
2018-05-10T08:21:29.705Z,43.10
2018-05-10T08:23:56.127Z,42.50
2018-05-10T08:26:26.344Z,42.10
2018-05-10T08:28:52.786Z,42.00
2018-05-10T08:31:19.187Z,41.20
2018-05-10T08:33:45.581Z,40.60
2018-05-10T08:36:12.043Z,43.40
2018-05-10T08:38:38.398Z,43.80
2018-05-10T08:41:05.512Z,42.60
2018-05-10T08:43:31.957Z,42.60
2018-05-10T08:45:58.351Z,43.30
2018-05-10T08:48:24.771Z,44.70
2018-05-10T08:50:51.156Z,45.50
2018-05-10T08:53:17.625Z,45.50
2018-05-10T08:55:45.224Z,46.00
2018-05-10T08:58:12.543Z,46.30
2018-05-10T09:00:40.011Z,46.20
2018-05-10T09:03:06.415Z,46.20
2018-05-10T09:05:32.829Z,48.20
2018-05-10T09:07:59.362Z,47.90
2018-05-10T09:10:25.792Z,48.20
2018-05-10T09:12:52.168Z,49.30
2018-05-10T09:15:18.885Z,49.20
2018-05-10T09:17:45.253Z,49.10
2018-05-10T09:20:11.687Z,47.80
2018-05-10T09:22:38.837Z,45.90
2018-05-10T09:25:05.245Z,45.80
2018-05-10T09:27:31.633Z,42.30
2018-05-10T09:29:57.994Z,42.90
2018-05-10T09:32:24.610Z,43.90
2018-05-10T09:34:51.005Z,43.70
2018-05-10T09:37:17.377Z,45.00
2018-05-10T09:39:43.785Z,45.90
2018-05-10T09:42:10.163Z,48.10
2018-05-10T09:44:36.549Z,50.10
2018-05-10T09:47:02.958Z,51.60
2018-05-10T09:49:30.122Z,54.70
2018-05-10T09:51:56.505Z,54.60
2018-05-10T09:54:22.934Z,55.40
2018-05-10T09:56:49.404Z,56.50
2018-05-10T09:59:19.801Z,57.50
2018-05-10T10:01:46.268Z,58.90
2018-05-10T10:04:13.006Z,59.90
2018-05-10T10:06:40.359Z,61.30
2018-05-10T10:09:07.037Z,61.30
2018-05-10T10:11:33.668Z,61.00
2018-05-10T10:14:01.045Z,59.50
2018-05-10T10:16:27.666Z,59.50
2018-05-10T10:18:54.177Z,57.80
2018-05-10T10:21:20.638Z,55.70
2018-05-10T10:23:47.198Z,54.50
2018-05-10T10:26:13.875Z,52.60
2018-05-10T10:28:40.336Z,52.60
2018-05-10T10:31:06.711Z,52.50
2018-05-10T10:33:33.318Z,53.90
2018-05-10T10:36:00.597Z,59.50
2018-05-10T10:38:27.001Z,59.60
2018-05-10T10:40:53.376Z,61.30
2018-05-10T10:43:19.952Z,65.60
2018-05-10T10:45:48.951Z,70.60
2018-05-10T10:48:15.588Z,77.20
2018-05-10T10:50:42.695Z,83.40
2018-05-10T10:53:09.493Z,83.40
2018-05-10T10:55:36.018Z,85.00
2018-05-10T10:58:02.598Z,88.30
2018-05-10T11:00:29.445Z,90.70
2018-05-10T11:02:55.825Z,93.10
2018-05-10T11:05:23.101Z,96.70
2018-05-10T11:07:49.559Z,96.70
2018-05-10T11:10:16.104Z,96.90
2018-05-10T11:12:42.538Z,97.60
2018-05-10T11:15:08.940Z,97.60
2018-05-10T11:17:35.409Z,98.70
2018-05-10T11:20:01.816Z,99.30
2018-05-10T11:22:28.589Z,99.90
2018-05-10T11:24:55.149Z,99.90
2018-05-10T11:27:22.060Z,99.90
2018-05-10T11:29:48.719Z,99.90
2018-05-10T11:32:15.240Z,99.90
2018-05-10T11:34:42.524Z,99.90
2018-05-10T11:37:08.910Z,99.90
2018-05-10T11:39:35.358Z,99.90
2018-05-10T11:42:01.927Z,99.90
2018-05-10T11:44:28.343Z,99.90
2018-05-10T11:46:54.691Z,99.90
2018-05-10T11:49:21.098Z,99.90
2018-05-10T11:51:47.909Z,99.90
2018-05-10T11:54:14.352Z,99.90
2018-05-10T11:56:40.804Z,99.90
2018-05-10T11:59:07.444Z,99.70
2018-05-10T12:01:33.869Z,99.90
2018-05-10T12:04:01.341Z,99.10
2018-05-10T12:06:28.805Z,97.50
2018-05-10T12:08:55.348Z,98.60
2018-05-10T12:11:22.499Z,97.10
2018-05-10T12:13:48.945Z,97.10
2018-05-10T12:16:15.397Z,96.90
2018-05-10T12:18:41.795Z,96.20
2018-05-10T12:21:08.181Z,96.50
2018-05-10T12:23:35.682Z,96.20
2018-05-10T12:26:02.375Z,94.60
2018-05-10T12:28:29.601Z,93.90
2018-05-10T12:30:56.008Z,93.90
2018-05-10T12:33:22.757Z,94.00
2018-05-10T12:35:49.708Z,92.90
2018-05-10T12:38:16.054Z,92.20
2018-05-10T12:40:42.465Z,90.20
2018-05-10T12:43:09.090Z,91.00
2018-05-10T12:45:35.636Z,90.80
2018-05-10T12:48:02.307Z,89.00
2018-05-10T12:50:32.702Z,90.50
2018-05-10T12:52:59.140Z,87.50
2018-05-10T12:55:25.724Z,89.90
2018-05-10T12:57:52.411Z,86.10
2018-05-10T13:00:19.133Z,83.40
2018-05-10T13:02:45.453Z,85.40
2018-05-10T13:05:11.992Z,79.90
2018-05-10T13:07:39.317Z,82.50
2018-05-10T13:10:05.752Z,82.50
2018-05-10T13:12:32.191Z,82.30
2018-05-10T13:15:02.568Z,81.20
2018-05-10T13:17:29.072Z,73.10
2018-05-10T13:19:56.513Z,79.70
2018-05-10T13:22:23.647Z,70.90
2018-05-10T13:24:50.012Z,70.50
2018-05-10T13:27:17.464Z,70.90
2018-05-10T13:29:43.914Z,71.10
2018-05-10T13:32:11.247Z,65.70
2018-05-10T13:34:37.675Z,65.90
2018-05-10T13:37:04.061Z,66.70
2018-05-10T13:39:30.479Z,64.90
2018-05-10T13:41:56.914Z,61.20
2018-05-10T13:44:23.344Z,63.30
2018-05-10T13:46:49.830Z,59.90
2018-05-10T13:49:16.188Z,64.60
2018-05-10T13:51:42.613Z,68.20
2018-05-10T13:54:13.951Z,64.30
2018-05-10T13:56:40.388Z,64.30
2018-05-10T13:59:06.822Z,61.60
2018-05-10T14:01:33.428Z,62.80
2018-05-10T14:03:59.793Z,61.90
2018-05-10T14:06:26.198Z,60.60
2018-05-10T14:08:52.590Z,56.80
2018-05-10T14:11:19.037Z,56.20
2018-05-10T14:13:45.397Z,56.00
2018-05-10T14:16:11.892Z,53.60
2018-05-10T14:18:38.293Z,55.50
2018-05-10T14:21:04.736Z,53.90
2018-05-10T14:23:31.142Z,54.00
2018-05-10T14:25:57.602Z,54.50
2018-05-10T14:28:23.994Z,53.50
2018-05-10T14:30:51.233Z,56.70
2018-05-10T14:33:17.771Z,56.70
2018-05-10T14:35:44.185Z,57.20
2018-05-10T14:38:14.448Z,58.10
2018-05-10T14:40:40.836Z,58.90
2018-05-10T14:43:07.234Z,59.40
2018-05-10T14:45:33.635Z,59.50
2018-05-10T14:48:00.097Z,59.40
2018-05-10T14:50:27.310Z,62.50
2018-05-10T14:52:53.698Z,62.40
2018-05-10T14:55:20.157Z,62.90
2018-05-10T14:57:46.541Z,64.60
2018-05-10T15:00:16.918Z,66.70
2018-05-10T15:02:43.353Z,69.40
2018-05-10T15:05:10.281Z,69.50
2018-05-10T15:07:36.769Z,73.00
2018-05-10T15:10:03.321Z,72.40
2018-05-10T15:12:29.773Z,74.30
2018-05-10T15:14:56.925Z,79.30
2018-05-10T15:17:23.314Z,79.40
2018-05-10T15:19:49.702Z,81.80
2018-05-10T15:22:16.822Z,85.60
2018-05-10T15:24:43.239Z,85.60
2018-05-10T15:27:09.639Z,88.70
2018-05-10T15:29:36.957Z,91.40
2018-05-10T15:32:03.489Z,91.30
2018-05-10T15:34:29.945Z,92.10
2018-05-10T15:36:57.026Z,92.90
2018-05-10T15:39:23.368Z,92.90
2018-05-10T15:41:49.794Z,93.90
2018-05-10T15:44:16.157Z,94.30
2018-05-10T15:46:42.697Z,94.50
2018-05-10T15:49:09.141Z,94.80
2018-05-10T15:51:36.582Z,95.30
2018-05-10T15:54:03.140Z,95.30
2018-05-10T15:56:29.540Z,95.10
2018-05-10T15:58:55.880Z,95.00
2018-05-10T16:01:23.208Z,95.40
2018-05-10T16:03:49.581Z,96.10
2018-05-10T16:06:15.965Z,96.40
2018-05-10T16:08:43.012Z,96.60
2018-05-10T16:11:09.441Z,96.60
2018-05-10T16:13:36.158Z,97.00
2018-05-10T16:16:02.536Z,97.30
2018-05-10T16:18:28.883Z,97.60
2018-05-10T16:20:55.256Z,97.80
2018-05-10T16:23:22.383Z,98.00
2018-05-10T16:25:48.730Z,97.90
2018-05-10T16:28:15.129Z,98.20
2018-05-10T16:30:41.566Z,98.00
2018-05-10T16:33:07.992Z,97.40
2018-05-10T16:35:34.349Z,97.60
2018-05-10T16:38:00.673Z,97.50
2018-05-10T16:40:27.007Z,97.50
2018-05-10T16:42:53.349Z,97.80
2018-05-10T16:45:20.489Z,98.10
2018-05-10T16:47:46.836Z,98.10
2018-05-10T16:50:13.182Z,98.20
2018-05-10T16:52:39.479Z,98.40
2018-05-10T16:55:05.831Z,98.80
2018-05-10T16:57:32.224Z,99.00
2018-05-10T16:59:59.301Z,99.50
2018-05-10T17:02:25.608Z,99.40
2018-05-10T17:04:52.001Z,99.60
2018-05-10T17:07:19.071Z,99.90
2018-05-10T17:09:46.221Z,99.90
2018-05-10T17:12:12.590Z,99.90
2018-05-10T17:14:38.937Z,99.90
2018-05-10T17:17:05.216Z,99.90
2018-05-10T17:19:32.628Z,99.90
2018-05-10T17:21:59.006Z,99.90
2018-05-10T17:24:25.371Z,99.90
2018-05-10T17:26:51.733Z,99.90
2018-05-10T17:29:18.068Z,99.90
2018-05-10T17:31:44.392Z,99.90
2018-05-10T17:34:10.709Z,99.90
2018-05-10T17:36:37.057Z,99.90
2018-05-10T17:39:03.427Z,99.90
2018-05-10T17:41:29.766Z,99.90
2018-05-10T17:43:56.832Z,99.90
2018-05-10T17:46:23.205Z,99.90
2018-05-10T17:48:49.541Z,99.90
2018-05-10T17:51:15.864Z,99.90
2018-05-10T17:53:42.187Z,99.90
2018-05-10T17:56:08.525Z,99.90
2018-05-10T17:58:34.860Z,99.90
2018-05-10T18:01:01.588Z,99.90
2018-05-10T18:03:27.888Z,99.90
2018-05-10T18:05:54.292Z,99.90
2018-05-10T18:08:20.613Z,99.90
2018-05-10T18:10:47.711Z,99.90
2018-05-10T18:13:14.809Z,99.90
2018-05-10T18:15:41.165Z,99.90
2018-05-10T18:18:07.497Z,99.90
2018-05-10T18:20:34.617Z,99.90
2018-05-10T18:23:00.956Z,99.90
2018-05-10T18:25:27.331Z,99.90
2018-05-10T18:27:53.699Z,99.90
2018-05-10T18:30:20.033Z,99.90
2018-05-10T18:32:46.411Z,99.90
2018-05-10T18:35:13.500Z,99.90
2018-05-10T18:37:39.865Z,99.90
2018-05-10T18:40:06.206Z,99.90
2018-05-10T18:42:32.573Z,99.90
2018-05-10T18:44:59.619Z,99.90
2018-05-10T18:47:26.720Z,99.90
2018-05-10T18:49:53.029Z,99.90
2018-05-10T18:52:19.473Z,99.90
2018-05-10T18:54:45.866Z,99.90
2018-05-10T18:57:12.974Z,99.90
2018-05-10T18:59:39.379Z,99.90
2018-05-10T19:02:05.694Z,99.90
2018-05-10T19:04:32.058Z,99.90
2018-05-10T19:06:58.389Z,99.90
2018-05-10T19:09:24.730Z,99.90
2018-05-10T19:11:51.088Z,99.90
2018-05-10T19:14:17.520Z,99.90
2018-05-10T19:16:43.903Z,99.90
2018-05-10T19:19:12.249Z,99.90
2018-05-10T19:21:38.620Z,99.90
2018-05-10T19:24:04.961Z,99.90
2018-05-10T19:26:31.406Z,99.90
2018-05-10T19:28:58.428Z,99.90
2018-05-10T19:31:24.811Z,99.90
2018-05-10T19:33:51.898Z,99.90
2018-05-10T19:36:18.268Z,99.90
2018-05-10T19:38:45.603Z,99.90
2018-05-10T19:41:12.012Z,99.90
2018-05-10T19:43:38.719Z,99.90
2018-05-10T19:46:05.044Z,99.90
2018-05-10T19:48:31.376Z,99.90
2018-05-10T19:50:57.790Z,99.90
2018-05-10T19:53:24.149Z,99.90
2018-05-10T19:55:50.480Z,99.90
2018-05-10T19:58:16.826Z,99.90
2018-05-10T20:00:43.202Z,99.90
2018-05-10T20:03:09.511Z,99.90
2018-05-10T20:05:36.589Z,99.90
2018-05-10T20:08:02.966Z,99.90
2018-05-10T20:10:29.318Z,99.90
2018-05-10T20:12:55.660Z,99.90
2018-05-10T20:15:22.034Z,99.90
2018-05-10T20:17:48.349Z,99.90
2018-05-10T20:20:14.711Z,99.90
2018-05-10T20:22:41.033Z,99.90
2018-05-10T20:25:07.482Z,99.90
2018-05-10T20:27:33.814Z,99.90
2018-05-10T20:30:00.153Z,99.90
2018-05-10T20:32:26.568Z,99.90
2018-05-10T20:34:54.501Z,99.90
2018-05-10T20:37:20.873Z,99.90
2018-05-10T20:39:47.247Z,99.90
2018-05-10T20:42:14.678Z,99.90
2018-05-10T20:44:41.096Z,99.90
2018-05-10T20:47:07.400Z,99.90
2018-05-10T20:49:33.740Z,99.90
2018-05-10T20:52:00.082Z,99.90
2018-05-10T20:54:27.139Z,99.90
2018-05-10T20:56:53.490Z,99.90
2018-05-10T20:59:19.849Z,99.90
2018-05-10T21:01:47.681Z,99.90
2018-05-10T21:04:14.072Z,99.90
2018-05-10T21:06:41.153Z,99.90
2018-05-10T21:09:07.534Z,99.90
2018-05-10T21:11:34.642Z,99.90
2018-05-10T21:14:00.997Z,99.90
2018-05-10T21:16:28.178Z,99.90
2018-05-10T21:18:54.439Z,99.90
2018-05-10T21:21:20.836Z,99.90
2018-05-10T21:23:47.173Z,99.90
2018-05-10T21:26:13.557Z,99.90
2018-05-10T21:28:56.774Z,99.90
2018-05-10T21:31:23.184Z,99.90
2018-05-10T21:33:49.582Z,99.90
2018-05-10T21:36:15.870Z,99.90
2018-05-10T21:38:42.281Z,99.90
2018-05-10T21:41:09.366Z,99.90
2018-05-10T21:43:35.715Z,99.90
2018-05-10T21:46:02.061Z,99.90
2018-05-10T21:48:28.421Z,99.90
2018-05-10T21:50:54.788Z,99.90
2018-05-10T21:53:26.059Z,99.90
2018-05-10T21:55:52.438Z,99.90
2018-05-10T21:58:18.829Z,99.90
2018-05-10T22:00:45.938Z,99.90
2018-05-10T22:03:12.238Z,99.90
2018-05-10T22:05:39.407Z,99.90
2018-05-10T22:08:05.769Z,99.90
2018-05-10T22:10:32.109Z,99.90
2018-05-10T22:12:58.473Z,99.90
2018-05-10T22:15:24.828Z,99.90
2018-05-10T22:17:51.235Z,99.90
2018-05-10T22:20:18.327Z,99.90
2018-05-10T22:22:44.741Z,99.90
2018-05-10T22:25:11.049Z,99.90
2018-05-10T22:27:38.215Z,99.90
2018-05-10T22:30:05.383Z,99.90
2018-05-10T22:32:31.653Z,99.90
2018-05-10T22:34:57.983Z,99.90
2018-05-10T22:37:24.396Z,99.90
2018-05-10T22:39:50.797Z,99.90
2018-05-10T22:42:17.860Z,99.90
2018-05-10T22:44:44.980Z,99.90
2018-05-10T22:47:11.450Z,99.90
2018-05-10T22:49:37.828Z,99.90
2018-05-10T22:52:04.416Z,99.90
2018-05-10T22:54:30.803Z,99.90
2018-05-10T22:56:57.380Z,99.90
2018-05-10T22:59:23.744Z,99.90
2018-05-10T23:01:50.126Z,99.90
2018-05-10T23:04:17.198Z,99.90
2018-05-10T23:06:44.293Z,99.90
2018-05-10T23:09:10.602Z,99.90
2018-05-10T23:11:36.916Z,99.90
2018-05-10T23:14:03.295Z,99.90
2018-05-10T23:16:29.633Z,99.90
2018-05-10T23:18:55.967Z,99.90
2018-05-10T23:21:22.330Z,99.90
2018-05-10T23:23:49.540Z,99.90
2018-05-10T23:26:15.846Z,99.90
2018-05-10T23:28:42.177Z,99.90
2018-05-10T23:31:11.549Z,99.90
2018-05-10T23:33:39.004Z,99.90
2018-05-10T23:36:05.413Z,99.90
2018-05-10T23:38:31.730Z,99.90
2018-05-10T23:40:58.109Z,99.90
2018-05-10T23:43:25.154Z,99.90
2018-05-10T23:45:52.221Z,99.90
2018-05-10T23:48:18.532Z,99.90
2018-05-10T23:50:45.597Z,99.90
2018-05-10T23:53:11.965Z,99.90
2018-05-10T23:55:38.336Z,99.90
2018-05-10T23:58:04.930Z,99.90
